Time;durP1;ratioP1;P1;durP2;ratioP2;P2;SDS_P1;SDS_P2;PMS_P1;PMS_P2;Temp;Humidity;BMP_temperature;BMP_pressure;BME280_temperature;BME280_humidity;BME280_pressure;Samples;Min_cycle;Max_cycle;Signal;HPM_P1;HPM_P2
2021/11/13 00:02:17;;;;;;;2.95;2.30;;;2.60;99.90;;;;;;4945727;28;20151;-65
2021/11/13 00:04:44;;;;;;;3.20;1.98;;;2.60;99.90;;;;;;4946203;28;20429;-73
2021/11/13 00:07:11;;;;;;;6.25;2.35;;;2.60;99.90;;;;;;4945758;28;20049;-66
2021/11/13 00:09:38;;;;;;;6.22;2.72;;;2.60;99.90;;;;;;4946915;28;20057;-64
2021/11/13 00:12:06;;;;;;;7.80;2.05;;;2.60;99.90;;;;;;4944258;28;20062;-64
2021/11/13 00:14:33;;;;;;;4.20;2.25;;;2.60;99.90;;;;;;4941103;28;20058;-69
2021/11/13 00:17:00;;;;;;;4.53;1.90;;;2.60;99.90;;;;;;4941810;28;20704;-64
2021/11/13 00:19:29;;;;;;;6.60;2.20;;;2.60;99.90;;;;;;4940116;28;20467;-66
2021/11/13 00:21:56;;;;;;;5.82;2.15;;;2.60;99.90;;;;;;4944432;28;20181;-67
2021/11/13 00:24:29;;;;;;;6.05;1.90;;;2.70;99.90;;;;;;4959663;28;20117;-64
2021/11/13 00:26:56;;;;;;;5.03;1.77;;;2.70;99.90;;;;;;4961236;28;20157;-65
2021/11/13 00:29:23;;;;;;;6.05;2.00;;;2.70;99.90;;;;;;4952112;28;20067;-66
2021/11/13 00:31:53;;;;;;;10.90;3.78;;;2.70;99.90;;;;;;4967010;28;20114;-66
2021/11/13 00:34:22;;;;;;;5.95;2.05;;;2.80;99.90;;;;;;4965071;28;20423;-66
2021/11/13 00:36:49;;;;;;;7.55;2.17;;;2.80;99.90;;;;;;4957307;28;20054;-72
2021/11/13 00:39:16;;;;;;;7.55;2.50;;;2.80;99.90;;;;;;4964432;28;20070;-63
2021/11/13 00:41:43;;;;;;;4.93;2.53;;;2.80;99.90;;;;;;4963134;28;20122;-66
2021/11/13 00:44:10;;;;;;;8.98;2.67;;;2.90;99.90;;;;;;4958663;28;20047;-65
2021/11/13 00:46:38;;;;;;;4.88;2.45;;;2.90;99.90;;;;;;4963213;28;20054;-68
2021/11/13 00:49:06;;;;;;;7.40;3.10;;;2.90;99.90;;;;;;4963814;28;20412;-66
2021/11/13 00:51:34;;;;;;;4.63;2.90;;;2.90;99.90;;;;;;4961649;28;20551;-66
2021/11/13 00:54:02;;;;;;;5.57;3.85;;;3.00;99.90;;;;;;4961847;28;20101;-66
2021/11/13 00:56:29;;;;;;;6.95;3.35;;;3.00;99.90;;;;;;4961000;28;20079;-63
2021/11/13 00:58:56;;;;;;;6.20;3.40;;;3.00;99.90;;;;;;4957152;28;20086;-67
2021/11/13 01:01:23;;;;;;;4.10;3.03;;;3.00;99.90;;;;;;4968065;28;20047;-66
2021/11/13 01:03:50;;;;;;;6.80;3.63;;;3.10;99.90;;;;;;4967965;28;20047;-68
2021/11/13 01:06:18;;;;;;;13.80;4.05;;;3.20;99.90;;;;;;4967969;28;20587;-66
2021/11/13 01:08:48;;;;;;;7.93;4.07;;;3.20;99.90;;;;;;4967956;28;20064;-66
2021/11/13 01:11:16;;;;;;;7.50;4.10;;;3.20;99.90;;;;;;4965938;28;20101;-66
2021/11/13 01:13:44;;;;;;;6.68;3.45;;;3.20;99.90;;;;;;4961395;28;20086;-65
2021/11/13 01:16:13;;;;;;;10.27;4.95;;;3.30;99.90;;;;;;4963737;28;20053;-63
2021/11/13 01:18:41;;;;;;;9.57;3.90;;;3.30;99.90;;;;;;4949105;28;20070;-66
2021/11/13 01:21:09;;;;;;;6.63;3.78;;;3.40;99.90;;;;;;4949264;28;20043;-70
2021/11/13 01:23:36;;;;;;;4.25;2.85;;;3.30;99.90;;;;;;4945836;28;20063;-66
2021/11/13 01:26:05;;;;;;;6.20;3.05;;;3.40;99.90;;;;;;4948403;28;20051;-64
2021/11/13 01:28:32;;;;;;;8.60;4.47;;;3.30;99.90;;;;;;4948774;28;20095;-66
2021/11/13 01:30:59;;;;;;;6.45;3.50;;;3.40;99.90;;;;;;4967641;28;20149;-71
2021/11/13 01:33:26;;;;;;;4.80;3.33;;;3.40;99.90;;;;;;4968364;28;20543;-65
2021/11/13 01:35:53;;;;;;;5.10;3.92;;;3.40;99.90;;;;;;4964147;28;20093;-68
2021/11/13 01:38:20;;;;;;;8.70;4.22;;;3.50;99.90;;;;;;4966741;28;20066;-65
2021/11/13 01:40:47;;;;;;;9.02;3.85;;;3.50;99.90;;;;;;4958947;28;20134;-65
2021/11/13 01:43:15;;;;;;;9.88;5.05;;;3.60;99.90;;;;;;4963141;28;20078;-64
2021/11/13 01:45:42;;;;;;;9.43;4.40;;;3.60;99.90;;;;;;4968877;28;20097;-65
2021/11/13 01:48:08;;;;;;;15.95;5.22;;;3.60;99.90;;;;;;4954098;28;20102;-64
2021/11/13 01:50:39;;;;;;;7.88;4.32;;;3.60;99.90;;;;;;4947280;28;20055;-64
2021/11/13 01:53:07;;;;;;;6.50;4.32;;;3.50;99.90;;;;;;4947703;28;20047;-67
2021/11/13 01:55:36;;;;;;;7.70;4.18;;;3.50;99.90;;;;;;4949219;28;20126;-71
2021/11/13 01:58:05;;;;;;;7.18;5.07;;;3.50;99.90;;;;;;4961917;28;20051;-64
2021/11/13 02:00:37;;;;;;;8.25;5.07;;;3.50;99.90;;;;;;4945087;28;20066;-64
2021/11/13 02:03:05;;;;;;;12.25;5.22;;;3.50;99.90;;;;;;4946015;28;20058;-66
2021/11/13 02:05:33;;;;;;;11.63;5.45;;;3.40;99.90;;;;;;4950793;28;20118;-64
2021/11/13 02:07:59;;;;;;;11.07;5.60;;;3.40;99.90;;;;;;4944723;28;20134;-64
2021/11/13 02:10:28;;;;;;;6.32;4.30;;;3.40;99.90;;;;;;4941118;28;20062;-66
2021/11/13 02:12:56;;;;;;;5.22;4.18;;;3.40;99.90;;;;;;4948467;28;20105;-69
2021/11/13 02:15:24;;;;;;;6.47;3.47;;;3.40;99.90;;;;;;4947789;28;20059;-67
2021/11/13 02:17:53;;;;;;;6.22;5.22;;;3.40;99.90;;;;;;4946609;28;20621;-65
2021/11/13 02:20:29;;;;;;;10.65;5.78;;;3.40;99.90;;;;;;4948421;28;20079;-64
2021/11/13 02:23:00;;;;;;;8.18;4.85;;;3.30;99.90;;;;;;4946289;28;20122;-69
2021/11/13 02:25:29;;;;;;;8.70;4.25;;;3.30;99.90;;;;;;4953944;28;20087;-64
2021/11/13 02:27:57;;;;;;;6.38;4.53;;;3.30;99.90;;;;;;4968040;28;20154;-72
2021/11/13 02:30:26;;;;;;;7.38;4.57;;;3.30;99.90;;;;;;4966420;28;20047;-65
2021/11/13 02:32:54;;;;;;;11.48;4.68;;;3.30;99.90;;;;;;4959980;28;20898;-74
2021/11/13 02:35:24;;;;;;;7.57;4.88;;;3.30;99.90;;;;;;4960744;28;20062;-70
2021/11/13 02:37:51;;;;;;;8.75;5.40;;;3.30;99.90;;;;;;4963745;28;20209;-65
2021/11/13 02:40:19;;;;;;;10.68;5.63;;;3.30;99.90;;;;;;4964204;28;20074;-67
2021/11/13 02:42:50;;;;;;;6.90;5.40;;;3.30;99.90;;;;;;4962912;28;20047;-66
2021/11/13 02:45:17;;;;;;;11.90;6.10;;;3.30;99.90;;;;;;4964050;28;20082;-69
2021/11/13 02:47:47;;;;;;;9.07;5.07;;;3.30;99.90;;;;;;4963659;28;20787;-68
2021/11/13 02:50:17;;;;;;;10.57;5.22;;;3.30;99.90;;;;;;4943546;28;20047;-63
2021/11/13 02:52:55;;;;;;;12.15;5.38;;;3.30;99.90;;;;;;4950042;28;20142;-64
2021/11/13 02:55:23;;;;;;;11.85;5.75;;;3.30;99.90;;;;;;4941064;28;20063;-68
2021/11/13 02:57:51;;;;;;;9.15;5.07;;;3.30;99.90;;;;;;4945103;28;20413;-69
2021/11/13 03:00:21;;;;;;;7.95;4.90;;;3.30;99.90;;;;;;4960361;28;20043;-64
2021/11/13 03:02:49;;;;;;;7.88;4.63;;;3.30;99.90;;;;;;4944419;28;20066;-66
2021/11/13 03:05:19;;;;;;;10.73;4.70;;;3.30;99.90;;;;;;4945972;28;20097;-66
2021/11/13 03:07:46;;;;;;;13.43;7.20;;;3.30;99.90;;;;;;4945779;28;20110;-70
2021/11/13 03:10:15;;;;;;;10.48;6.38;;;3.30;99.90;;;;;;4946410;28;20146;-73
2021/11/13 03:12:43;;;;;;;7.75;4.60;;;3.30;99.90;;;;;;4942842;28;20103;-64
2021/11/13 03:15:12;;;;;;;9.88;4.80;;;3.20;99.90;;;;;;4947438;28;20043;-67
2021/11/13 03:17:40;;;;;;;7.72;4.85;;;3.20;99.90;;;;;;4943527;28;20078;-72
2021/11/13 03:20:13;;;;;;;10.50;4.93;;;3.20;99.90;;;;;;4943686;28;20138;-63
2021/11/13 03:22:41;;;;;;;11.35;5.72;;;3.20;99.90;;;;;;4946732;28;20110;-67
2021/11/13 03:25:14;;;;;;;8.30;4.93;;;3.20;99.90;;;;;;4944069;28;20082;-65
2021/11/13 03:27:45;;;;;;;9.93;5.18;;;3.20;99.90;;;;;;4947234;28;20074;-68
2021/11/13 03:30:16;;;;;;;7.70;4.63;;;3.20;99.90;;;;;;4944581;28;20450;-66
2021/11/13 03:32:43;;;;;;;7.78;4.55;;;3.20;99.90;;;;;;4942727;28;20109;-63
2021/11/13 03:35:14;;;;;;;8.68;4.30;;;3.10;99.90;;;;;;4947732;28;20133;-68
2021/11/13 03:37:43;;;;;;;6.50;4.47;;;3.10;99.90;;;;;;4946785;28;20039;-64
2021/11/13 03:40:12;;;;;;;6.55;4.15;;;3.10;99.90;;;;;;4946362;28;20058;-65
2021/11/13 03:42:39;;;;;;;9.15;4.57;;;3.10;99.90;;;;;;4943494;28;20130;-63
2021/11/13 03:45:07;;;;;;;7.97;4.82;;;3.10;99.90;;;;;;4945664;28;20059;-73
2021/11/13 03:47:34;;;;;;;5.13;4.25;;;3.10;99.90;;;;;;4944290;28;20056;-65
2021/11/13 03:50:03;;;;;;;7.22;4.45;;;3.10;99.90;;;;;;4946580;28;20098;-71
2021/11/13 03:52:29;;;;;;;8.52;3.50;;;3.10;99.90;;;;;;4944015;28;21028;-70
2021/11/13 03:54:56;;;;;;;7.13;4.45;;;3.00;99.90;;;;;;4947035;28;20211;-68
2021/11/13 03:57:23;;;;;;;7.03;3.67;;;3.00;99.90;;;;;;4946767;28;20082;-63
2021/11/13 03:59:54;;;;;;;5.85;3.47;;;3.10;99.90;;;;;;4948214;28;20433;-64
2021/11/13 04:02:21;;;;;;;4.22;3.05;;;3.00;99.90;;;;;;4946125;28;20457;-69
2021/11/13 04:04:49;;;;;;;7.13;3.38;;;3.00;99.90;;;;;;4945136;28;20532;-65
2021/11/13 04:07:16;;;;;;;6.90;3.25;;;3.00;99.90;;;;;;4946555;28;20047;-64
2021/11/13 04:09:43;;;;;;;5.97;3.10;;;3.10;99.90;;;;;;4945435;28;20106;-65
2021/11/13 04:12:13;;;;;;;4.15;2.65;;;3.10;99.90;;;;;;4949548;28;20055;-63
2021/11/13 04:14:41;;;;;;;6.38;2.92;;;3.10;99.90;;;;;;4944369;28;20179;-66
2021/11/13 04:17:10;;;;;;;6.60;3.00;;;3.10;99.90;;;;;;4948534;28;20068;-63
2021/11/13 04:19:37;;;;;;;5.20;2.78;;;3.20;99.90;;;;;;4945581;28;20456;-73
2021/11/13 04:22:05;;;;;;;4.38;2.28;;;3.20;99.90;;;;;;4946616;28;20139;-64
2021/11/13 04:24:32;;;;;;;3.65;2.55;;;3.20;99.90;;;;;;4945203;28;20062;-68
2021/11/13 04:27:00;;;;;;;5.57;2.33;;;3.20;99.90;;;;;;4944854;28;20138;-74
2021/11/13 04:29:27;;;;;;;10.77;3.03;;;3.20;99.90;;;;;;4944696;28;20134;-66
2021/11/13 04:31:54;;;;;;;6.80;3.08;;;3.20;99.90;;;;;;4947053;28;20390;-65
2021/11/13 04:34:23;;;;;;;5.78;2.92;;;3.30;99.90;;;;;;4946418;28;20045;-68
2021/11/13 04:36:53;;;;;;;4.95;2.47;;;3.30;99.90;;;;;;4944318;28;20074;-68
2021/11/13 04:39:25;;;;;;;8.68;3.83;;;3.30;99.90;;;;;;4937185;28;20066;-64
2021/11/13 04:41:54;;;;;;;6.78;3.10;;;3.40;99.90;;;;;;4944995;28;20044;-66
2021/11/13 04:44:21;;;;;;;5.22;3.05;;;3.40;99.90;;;;;;4947758;28;20039;-68
2021/11/13 04:46:49;;;;;;;7.28;4.15;;;3.40;99.90;;;;;;4943091;28;20065;-65
2021/11/13 04:49:16;;;;;;;7.28;2.10;;;3.40;99.90;;;;;;4944740;28;20143;-65
2021/11/13 04:51:43;;;;;;;6.45;2.70;;;3.40;99.90;;;;;;4947308;28;20078;-65
2021/11/13 04:54:10;;;;;;;3.88;2.60;;;3.50;99.90;;;;;;4946162;28;20047;-65
2021/11/13 04:56:37;;;;;;;7.10;2.92;;;3.50;99.90;;;;;;4942203;28;20078;-64
2021/11/13 04:59:05;;;;;;;3.97;2.75;;;3.50;99.90;;;;;;4946953;28;20090;-63
2021/11/13 05:01:33;;;;;;;5.40;2.70;;;3.50;99.90;;;;;;4943690;28;20075;-63
2021/11/13 05:03:59;;;;;;;5.03;2.78;;;3.50;99.90;;;;;;4944748;28;20419;-63
2021/11/13 05:06:29;;;;;;;7.45;2.97;;;3.50;99.90;;;;;;4942299;28;20345;-65
2021/11/13 05:08:57;;;;;;;3.17;1.85;;;3.60;99.90;;;;;;4962698;28;20059;-67
2021/11/13 05:11:24;;;;;;;6.35;2.53;;;3.60;99.90;;;;;;4955429;28;20077;-72
2021/11/13 05:13:51;;;;;;;5.63;2.10;;;3.60;99.90;;;;;;4941919;28;20051;-68
2021/11/13 05:16:19;;;;;;;4.30;1.90;;;3.60;99.90;;;;;;4944766;28;20048;-65
2021/11/13 05:18:45;;;;;;;2.85;1.75;;;3.60;99.90;;;;;;4943270;28;20082;-70
2021/11/13 05:21:13;;;;;;;6.35;2.00;;;3.60;99.90;;;;;;4944967;28;20521;-67
2021/11/13 05:23:40;;;;;;;3.50;2.20;;;3.70;99.90;;;;;;4946487;28;20051;-65
2021/11/13 05:26:07;;;;;;;9.30;3.00;;;3.70;99.90;;;;;;4943764;28;20051;-62
2021/11/13 05:28:34;;;;;;;6.85;2.67;;;3.70;99.90;;;;;;4944514;28;20040;-71
2021/11/13 05:31:02;;;;;;;5.85;3.28;;;3.70;99.90;;;;;;4945862;28;20630;-65
2021/11/13 05:33:29;;;;;;;7.05;2.72;;;3.70;99.90;;;;;;4946179;28;20054;-64
2021/11/13 05:35:59;;;;;;;5.80;2.88;;;3.70;99.90;;;;;;4947330;28;20062;-65
2021/11/13 05:38:26;;;;;;;13.00;3.45;;;3.80;99.90;;;;;;4944613;28;20097;-66
2021/11/13 05:40:53;;;;;;;7.80;2.92;;;3.70;99.90;;;;;;4945489;28;20169;-70
2021/11/13 05:43:19;;;;;;;8.68;2.95;;;3.80;99.90;;;;;;4963878;28;20082;-75
2021/11/13 05:45:47;;;;;;;5.93;2.65;;;3.80;99.90;;;;;;4957285;28;20137;-68
2021/11/13 05:48:18;;;;;;;9.00;2.47;;;3.80;99.90;;;;;;4946763;28;20480;-63
2021/11/13 05:50:45;;;;;;;7.93;3.70;;;3.80;99.90;;;;;;4948520;28;20059;-68
2021/11/13 05:53:13;;;;;;;12.15;3.72;;;3.80;99.90;;;;;;4950134;28;20050;-74
2021/11/13 05:55:40;;;;;;;6.68;2.90;;;3.90;99.90;;;;;;4950295;28;20113;-64
2021/11/13 05:58:14;;;;;;;10.25;3.20;;;3.90;99.90;;;;;;4949281;28;20062;-63
2021/11/13 06:00:41;;;;;;;9.10;3.08;;;3.90;99.90;;;;;;4944436;28;20043;-65
2021/11/13 06:03:08;;;;;;;7.95;3.17;;;3.90;99.90;;;;;;4947233;28;20051;-65
2021/11/13 06:05:35;;;;;;;7.75;3.88;;;4.00;99.90;;;;;;4948536;28;20039;-65
2021/11/13 06:08:02;;;;;;;9.13;3.83;;;4.00;99.90;;;;;;4947939;28;20063;-72
2021/11/13 06:10:29;;;;;;;9.07;4.30;;;4.00;99.90;;;;;;4945829;28;20334;-65
2021/11/13 06:12:57;;;;;;;6.85;3.92;;;4.00;99.90;;;;;;4950727;28;20042;-63
2021/11/13 06:15:24;;;;;;;11.52;3.85;;;4.00;99.90;;;;;;4950550;28;20055;-66
2021/11/13 06:17:51;;;;;;;12.02;3.90;;;4.10;99.90;;;;;;4949152;28;20083;-63
2021/11/13 06:20:18;;;;;;;9.32;4.00;;;4.10;99.90;;;;;;4948638;28;20115;-66
2021/11/13 06:22:45;;;;;;;11.85;4.38;;;4.10;99.90;;;;;;4951344;28;20081;-64
2021/11/13 06:25:14;;;;;;;9.40;4.25;;;4.10;99.90;;;;;;4947626;28;20498;-64
2021/11/13 06:27:42;;;;;;;11.07;4.15;;;4.10;99.90;;;;;;4949197;28;20545;-67
2021/11/13 06:30:11;;;;;;;10.35;3.13;;;4.10;99.90;;;;;;4950367;28;20043;-63
2021/11/13 06:32:40;;;;;;;15.73;4.55;;;4.10;99.90;;;;;;4949844;28;20094;-67
2021/11/13 06:35:09;;;;;;;10.27;6.03;;;4.20;99.90;;;;;;4949030;28;20083;-67
2021/11/13 06:37:37;;;;;;;13.30;4.68;;;4.20;99.90;;;;;;4949248;28;20885;-67
2021/11/13 06:40:05;;;;;;;12.02;4.63;;;4.20;99.90;;;;;;4946504;28;20532;-71
2021/11/13 06:42:34;;;;;;;7.63;4.97;;;4.20;99.90;;;;;;4947716;28;20047;-67
2021/11/13 06:45:00;;;;;;;11.85;5.40;;;4.20;99.90;;;;;;4950029;28;20835;-66
2021/11/13 06:47:27;;;;;;;12.73;4.30;;;4.20;99.90;;;;;;4947294;28;20425;-64
2021/11/13 06:49:56;;;;;;;14.95;4.97;;;4.30;99.90;;;;;;4948466;28;20055;-69
2021/11/13 06:52:23;;;;;;;9.98;3.25;;;4.30;99.90;;;;;;4948888;28;20101;-64
2021/11/13 06:54:50;;;;;;;10.02;3.55;;;4.30;99.90;;;;;;4948486;28;20378;-65
2021/11/13 06:57:17;;;;;;;13.05;3.33;;;4.40;99.90;;;;;;4946650;28;20513;-68
2021/11/13 06:59:44;;;;;;;16.17;4.13;;;4.40;99.90;;;;;;4947264;28;21018;-71
2021/11/13 07:02:11;;;;;;;12.43;4.13;;;4.50;99.90;;;;;;4950784;28;20476;-65
2021/11/13 07:04:38;;;;;;;14.40;2.80;;;4.50;99.90;;;;;;4947189;28;20035;-64
2021/11/13 07:07:06;;;;;;;10.30;2.40;;;4.50;99.90;;;;;;4949437;28;20044;-66
2021/11/13 07:09:36;;;;;;;14.02;3.10;;;4.60;99.90;;;;;;4947648;28;20055;-63
2021/11/13 07:12:05;;;;;;;10.98;3.72;;;4.60;99.90;;;;;;4964941;28;20136;-67
2021/11/13 07:14:32;;;;;;;7.97;3.03;;;4.60;99.90;;;;;;4949553;28;20039;-67
2021/11/13 07:16:59;;;;;;;10.55;3.67;;;4.70;99.90;;;;;;4948813;28;20127;-66
2021/11/13 07:19:26;;;;;;;10.60;3.20;;;4.70;99.90;;;;;;4948680;28;20113;-64
2021/11/13 07:21:53;;;;;;;12.27;4.18;;;4.70;99.90;;;;;;4963749;28;20070;-64
2021/11/13 07:24:20;;;;;;;12.23;3.38;;;4.70;99.90;;;;;;4969451;28;20046;-63
2021/11/13 07:26:53;;;;;;;13.27;4.10;;;4.70;99.90;;;;;;4967203;28;20105;-66
2021/11/13 07:29:24;;;;;;;14.07;3.45;;;4.80;99.90;;;;;;4966868;28;20058;-63
2021/11/13 07:31:54;;;;;;;10.95;5.15;;;4.80;99.90;;;;;;4964911;28;20047;-64
2021/11/13 07:34:21;;;;;;;13.10;4.47;;;4.90;99.90;;;;;;4968814;28;20042;-63
2021/11/13 07:36:49;;;;;;;7.03;3.70;;;4.90;99.90;;;;;;4967177;28;20134;-66
2021/11/13 07:39:16;;;;;;;13.45;4.50;;;4.90;99.90;;;;;;4967880;28;20128;-70
2021/11/13 07:41:43;;;;;;;7.90;3.88;;;5.00;99.90;;;;;;4965370;28;20042;-65
2021/11/13 07:44:10;;;;;;;15.05;4.90;;;5.00;99.90;;;;;;4968476;28;20047;-64
2021/11/13 07:46:37;;;;;;;10.13;3.65;;;5.00;99.90;;;;;;4965431;28;20140;-65
2021/11/13 07:49:04;;;;;;;8.43;3.05;;;5.00;99.90;;;;;;4958198;28;20472;-70
2021/11/13 07:51:31;;;;;;;13.55;4.43;;;5.10;99.90;;;;;;4947280;28;20070;-66
2021/11/13 07:53:58;;;;;;;7.55;3.55;;;5.10;99.90;;;;;;4948697;28;20147;-69
2021/11/13 07:56:25;;;;;;;17.38;4.30;;;5.10;99.90;;;;;;4948900;28;20047;-64
2021/11/13 07:58:52;;;;;;;9.27;4.00;;;5.10;99.90;;;;;;4965255;28;20523;-69
2021/11/13 08:01:19;;;;;;;10.13;3.63;;;5.10;99.90;;;;;;4968628;28;20059;-64
2021/11/13 08:03:47;;;;;;;13.48;4.85;;;5.20;99.90;;;;;;4970880;28;20066;-65
2021/11/13 08:06:14;;;;;;;10.35;4.43;;;5.20;99.90;;;;;;4965366;28;20097;-63
2021/11/13 08:08:41;;;;;;;13.68;3.78;;;5.30;99.90;;;;;;4963004;28;20528;-70
2021/11/13 08:11:08;;;;;;;24.05;4.68;;;5.30;99.90;;;;;;4966909;28;20070;-63
2021/11/13 08:13:37;;;;;;;9.75;4.10;;;5.30;99.90;;;;;;4967842;28;20078;-63
2021/11/13 08:16:04;;;;;;;13.68;4.30;;;5.30;99.90;;;;;;4969569;28;20050;-64
2021/11/13 08:18:31;;;;;;;12.35;3.58;;;5.40;99.90;;;;;;4965394;28;20453;-66
2021/11/13 08:20:59;;;;;;;15.38;2.95;;;5.40;99.90;;;;;;4967881;28;20050;-63
2021/11/13 08:23:27;;;;;;;14.27;4.45;;;5.50;99.90;;;;;;4969443;28;20144;-64
2021/11/13 08:25:55;;;;;;;9.85;3.47;;;5.50;99.90;;;;;;4968823;28;20105;-64
2021/11/13 08:28:22;;;;;;;10.07;4.40;;;5.50;99.90;;;;;;4967285;28;20145;-65
2021/11/13 08:30:50;;;;;;;11.85;3.10;;;5.50;99.90;;;;;;4966181;28;20134;-64
2021/11/13 08:33:18;;;;;;;11.55;2.67;;;5.50;99.90;;;;;;4968230;28;20516;-65
2021/11/13 08:35:46;;;;;;;9.93;2.40;;;5.60;99.90;;;;;;4966465;28;20132;-64
2021/11/13 08:38:18;;;;;;;14.68;3.92;;;5.60;99.90;;;;;;4966211;28;20142;-64
2021/11/13 08:40:51;;;;;;;13.77;3.20;;;5.60;99.90;;;;;;4965448;28;21544;-64
2021/11/13 08:43:19;;;;;;;10.30;2.83;;;5.70;99.90;;;;;;4967938;28;20042;-67
2021/11/13 08:45:48;;;;;;;15.63;3.08;;;5.70;99.90;;;;;;4966594;28;20050;-64
2021/11/13 08:48:17;;;;;;;7.05;2.80;;;5.70;99.90;;;;;;4968402;28;20177;-63
2021/11/13 08:50:46;;;;;;;;;;;5.70;99.90;;;;;;4967222;28;20360;-72
2021/11/13 08:53:13;;;;;;;17.33;3.83;;;5.80;99.90;;;;;;4967868;28;20015;-64
2021/11/13 08:55:43;;;;;;;12.13;3.50;;;5.80;99.90;;;;;;4966074;28;20570;-73
2021/11/13 08:58:10;;;;;;;6.23;2.17;;;5.80;99.90;;;;;;4966124;28;20038;-72
2021/11/13 09:00:38;;;;;;;14.23;3.17;;;5.90;99.90;;;;;;4963637;28;20292;-65
2021/11/13 09:03:12;;;;;;;13.85;3.67;;;5.90;99.90;;;;;;4968309;28;20129;-63
2021/11/13 09:05:40;;;;;;;7.97;2.78;;;5.90;99.90;;;;;;4965174;28;20070;-67
2021/11/13 09:08:07;;;;;;;15.70;3.85;;;6.00;99.90;;;;;;4965987;28;20106;-65
2021/11/13 09:10:38;;;;;;;14.13;3.92;;;6.00;99.90;;;;;;4957168;28;20059;-67
2021/11/13 09:13:06;;;;;;;13.38;3.75;;;6.10;99.90;;;;;;4968430;28;20093;-63
2021/11/13 09:15:34;;;;;;;13.40;3.92;;;6.10;99.90;;;;;;4958206;28;20043;-63
2021/11/13 09:18:03;;;;;;;12.32;3.45;;;6.10;99.90;;;;;;4949986;28;20135;-63
2021/11/13 09:20:30;;;;;;;11.40;3.42;;;6.20;99.90;;;;;;4951642;28;20103;-63
2021/11/13 09:22:58;;;;;;;11.55;3.25;;;6.20;99.90;;;;;;4951671;28;20425;-63
2021/11/13 09:25:26;;;;;;;19.17;3.72;;;6.30;99.90;;;;;;4953383;28;20051;-63
2021/11/13 09:27:53;;;;;;;15.40;3.00;;;6.30;99.90;;;;;;4953580;28;20563;-64
2021/11/13 09:30:25;;;;;;;14.95;4.03;;;6.40;99.90;;;;;;4950187;28;20043;-63
2021/11/13 09:32:54;;;;;;;14.20;4.00;;;6.40;99.90;;;;;;4946662;28;20168;-69
2021/11/13 09:35:22;;;;;;;14.00;3.78;;;6.40;99.90;;;;;;4954236;28;20039;-66
2021/11/13 09:38:09;;;;;;;11.82;2.75;;;6.40;99.90;;;;;;4945496;28;20553;-70
2021/11/13 09:40:36;;;;;;;16.05;3.92;;;6.50;99.90;;;;;;4948908;28;20055;-67
2021/11/13 09:43:05;;;;;;;11.48;3.03;;;6.50;99.90;;;;;;4951791;28;20500;-67
2021/11/13 09:45:32;;;;;;;12.27;3.35;;;6.50;99.90;;;;;;4965770;28;20046;-65
2021/11/13 09:48:01;;;;;;;12.35;1.98;;;6.60;99.90;;;;;;4951204;28;20047;-67
2021/11/13 09:50:31;;;;;;;10.13;2.10;;;6.60;99.90;;;;;;4949848;28;20059;-63
2021/11/13 09:52:58;;;;;;;;;;;6.70;99.90;;;;;;4953129;28;20051;-67
2021/11/13 09:55:26;;;;;;;5.03;1.92;;;6.70;99.90;;;;;;4969435;28;19930;-64
2021/11/13 09:57:54;;;;;;;10.10;2.15;;;6.80;99.90;;;;;;4972291;28;20073;-65
2021/11/13 10:00:30;;;;;;;8.93;2.15;;;6.80;99.90;;;;;;4971214;28;20086;-66
2021/11/13 10:02:57;;;;;;;9.90;3.40;;;6.80;99.90;;;;;;4950605;28;20520;-65
2021/11/13 10:05:24;;;;;;;8.50;2.63;;;6.90;99.90;;;;;;4950471;28;20154;-67
2021/11/13 10:07:51;;;;;;;11.63;3.53;;;6.90;99.90;;;;;;4950970;28;20190;-64
2021/11/13 10:10:39;;;;;;;13.60;2.92;;;7.00;99.90;;;;;;4953946;28;20063;-64
2021/11/13 10:13:22;;;;;;;3.25;2.22;;;7.00;99.90;;;;;;4947266;28;20043;-66
2021/11/13 10:15:53;;;;;;;12.88;2.35;;;7.00;99.90;;;;;;4952100;28;20051;-63
2021/11/13 10:18:23;;;;;;;11.45;2.17;;;7.10;99.90;;;;;;4950563;28;20138;-68
2021/11/13 10:21:03;;;;;;;11.98;2.42;;;7.10;99.90;;;;;;4964831;28;20042;-65
2021/11/13 10:23:40;;;;;;;11.45;3.35;;;7.10;99.90;;;;;;4970977;28;20047;-65
2021/11/13 10:26:17;;;;;;;4.82;1.80;;;7.10;99.90;;;;;;4967928;28;20054;-66
2021/11/13 10:28:48;;;;;;;10.00;2.92;;;7.20;99.90;;;;;;4969348;28;20103;-68
2021/11/13 10:31:23;;;;;;;5.10;2.05;;;7.20;99.90;;;;;;4970450;28;20047;-66
2021/11/13 10:33:54;;;;;;;5.15;2.30;;;7.20;99.90;;;;;;4966949;28;20070;-64
2021/11/13 10:36:52;;;;;;;10.18;2.15;;;7.30;99.90;;;;;;4970010;28;20113;-64
2021/11/13 10:39:23;;;;;;;6.72;2.10;;;7.30;99.90;;;;;;4959457;28;20427;-64
2021/11/13 10:41:52;;;;;;;2.90;1.52;;;7.30;99.90;;;;;;4971285;28;20408;-64
2021/11/13 10:44:27;;;;;;;11.88;1.77;;;7.30;99.90;;;;;;4968995;28;20125;-67
2021/11/13 10:46:55;;;;;;;14.27;2.20;;;7.30;99.90;;;;;;4965837;28;20046;-64
2021/11/13 10:49:23;;;;;;;5.57;1.50;;;7.40;99.90;;;;;;4977050;28;20437;-65
2021/11/13 10:51:59;;;;;;;6.38;2.17;;;7.40;99.90;;;;;;4949220;28;20121;-71
2021/11/13 10:54:28;;;;;;;6.85;1.35;;;7.40;99.90;;;;;;4965249;28;20632;-65
2021/11/13 10:57:01;;;;;;;6.68;2.20;;;7.50;99.90;;;;;;4946010;28;20614;-64
2021/11/13 10:59:36;;;;;;;6.70;2.00;;;7.50;99.90;;;;;;4945931;28;20098;-66
2021/11/13 11:02:07;;;;;;;7.30;1.33;;;7.50;99.90;;;;;;4949994;28;20417;-63
2021/11/13 11:04:38;;;;;;;7.45;2.22;;;7.60;99.90;;;;;;4950557;28;20069;-63
2021/11/13 11:07:07;;;;;;;11.02;2.83;;;7.60;99.90;;;;;;4950969;28;20054;-65
2021/11/13 11:09:40;;;;;;;8.10;2.53;;;7.60;99.90;;;;;;4959054;28;20131;-64
2021/11/13 11:12:21;;;;;;;9.82;2.72;;;7.60;99.90;;;;;;4969224;28;20225;-67
2021/11/13 11:14:51;;;;;;;9.55;2.45;;;7.60;99.90;;;;;;4962750;28;20047;-67
2021/11/13 11:17:22;;;;;;;7.93;1.65;;;7.70;99.90;;;;;;4970217;28;20177;-63
2021/11/13 11:19:51;;;;;;;5.22;2.05;;;7.70;99.90;;;;;;4969734;28;20042;-68
2021/11/13 11:22:27;;;;;;;10.60;1.58;;;7.70;99.90;;;;;;4967113;28;20137;-64
2021/11/13 11:24:57;;;;;;;6.43;2.03;;;7.70;99.90;;;;;;4966996;28;20050;-66
2021/11/13 11:27:29;;;;;;;8.95;2.00;;;7.70;99.90;;;;;;4970336;28;20046;-68
2021/11/13 11:30:13;;;;;;;9.23;1.90;;;7.80;99.90;;;;;;4968286;28;20058;-66
2021/11/13 11:32:40;;;;;;;5.78;1.50;;;7.80;99.90;;;;;;4966694;28;20062;-63
2021/11/13 11:35:10;;;;;;;5.88;1.92;;;7.80;99.90;;;;;;4970462;28;20113;-63
2021/11/13 11:37:40;;;;;;;5.75;1.75;;;7.80;99.90;;;;;;4972840;28;20050;-63
2021/11/13 11:40:20;;;;;;;7.93;2.08;;;7.80;99.90;;;;;;4967726;28;20575;-68
2021/11/13 11:42:49;;;;;;;10.48;2.03;;;7.80;99.90;;;;;;4949000;28;20062;-67
2021/11/13 11:45:19;;;;;;;12.63;2.33;;;7.90;99.90;;;;;;4952591;28;20147;-67
2021/11/13 11:47:48;;;;;;;;;;;7.90;99.90;;;;;;4951303;28;20073;-64
2021/11/13 11:50:16;;;;;;;10.52;2.55;;;7.90;99.90;;;;;;4950458;28;19957;-64
2021/11/13 11:52:44;;;;;;;5.38;1.90;;;7.90;99.90;;;;;;4948066;28;20528;-68
2021/11/13 11:55:13;;;;;;;14.00;2.67;;;7.90;99.90;;;;;;4947304;28;20039;-69
2021/11/13 11:57:44;;;;;;;12.95;2.30;;;7.90;99.90;;;;;;4948993;28;20050;-64
2021/11/13 12:00:15;;;;;;;11.35;2.47;;;7.90;99.90;;;;;;4947417;28;20495;-66
2021/11/13 12:02:48;;;;;;;7.85;1.88;;;7.90;99.90;;;;;;4946505;28;20063;-69
2021/11/13 12:05:18;;;;;;;10.20;2.05;;;8.00;99.90;;;;;;4950591;28;20086;-64
2021/11/13 12:07:47;;;;;;;6.68;2.92;;;8.00;99.90;;;;;;4948797;28;20370;-64
2021/11/13 12:10:22;;;;;;;9.73;2.75;;;8.00;99.90;;;;;;4948729;28;20114;-63
2021/11/13 12:13:11;;;;;;;12.52;3.75;;;8.00;99.90;;;;;;4945549;28;20051;-63
2021/11/13 12:15:46;;;;;;;9.95;2.55;;;8.00;99.90;;;;;;4947278;28;20401;-64
2021/11/13 12:18:24;;;;;;;15.80;3.75;;;8.10;99.90;;;;;;4949104;28;20676;-64
2021/11/13 12:21:03;;;;;;;10.02;2.95;;;8.10;99.90;;;;;;4955315;28;20408;-75
2021/11/13 12:23:36;;;;;;;14.88;4.10;;;8.10;99.90;;;;;;4951625;28;20747;-64
2021/11/13 12:26:11;;;;;;;16.75;4.07;;;8.10;99.90;;;;;;4946150;28;20093;-63
2021/11/13 12:28:46;;;;;;;10.48;3.35;;;8.10;99.90;;;;;;4944684;28;20055;-64
2021/11/13 12:31:24;;;;;;;7.35;3.42;;;8.10;99.90;;;;;;4950649;28;20050;-63
2021/11/13 12:34:01;;;;;;;19.23;3.72;;;8.10;99.90;;;;;;4947811;28;20497;-77
2021/11/13 12:36:32;;;;;;;8.48;3.10;;;8.10;99.90;;;;;;4948033;28;20362;-66
2021/11/13 12:39:07;;;;;;;10.55;2.88;;;8.10;99.90;;;;;;4948327;28;20098;-69
2021/11/13 12:41:38;;;;;;;9.05;3.05;;;8.00;99.90;;;;;;4950489;28;20137;-63
2021/11/13 12:44:11;;;;;;;15.60;4.15;;;8.10;99.90;;;;;;4947985;28;20082;-64
2021/11/13 12:46:53;;;;;;;12.60;3.88;;;8.00;99.90;;;;;;4948578;28;20047;-63
2021/11/13 12:49:26;;;;;;;12.35;3.42;;;8.10;99.90;;;;;;4944491;28;20047;-65
2021/11/13 12:51:56;;;;;;;11.02;3.97;;;8.00;99.90;;;;;;4958791;28;20125;-74
2021/11/13 12:54:26;;;;;;;6.60;3.00;;;8.00;99.90;;;;;;4960109;28;20236;-65
2021/11/13 12:57:09;;;;;;;8.68;3.03;;;8.00;99.90;;;;;;4944747;28;20172;-64
2021/11/13 12:59:56;;;;;;;7.47;3.08;;;8.00;99.90;;;;;;4944835;28;20871;-66
2021/11/13 13:02:25;;;;;;;16.35;4.55;;;8.00;99.90;;;;;;4937425;28;20134;-66
2021/11/13 13:04:52;;;;;;;7.63;4.32;;;8.00;99.90;;;;;;4944430;28;20050;-69